Time;durP1;ratioP1;P1;durP2;ratioP2;P2;SDS_P1;SDS_P2;PMS_P1;PMS_P2;Temp;Humidity;BMP_temperature;BMP_pressure;BME280_temperature;BME280_humidity;BME280_pressure;Samples;Min_cycle;Max_cycle;Signal;HPM_P1;HPM_P2
2022/11/05 00:09:28;;;;;;;63.60;24.18;;;;;;;;;;1720835;83;20975;-92
2022/11/05 00:10:46;;;;;;;68.22;27.55;;;;;;;;;;1720782;83;21036;-92
2022/11/05 00:18:39;;;;;;;68.40;26.70;;;;;;;;;;1647357;87;21592;-91
2022/11/05 00:25:12;;;;;;;62.08;25.68;;;;;;;;;;1647592;87;21027;-91
2022/11/05 00:26:17;;;;;;;69.37;26.75;;;;;;;;;;1647396;87;21062;-92
2022/11/05 00:28:43;;;;;;;65.28;26.10;;;;;;;;;;1647316;87;20971;-91
2022/11/05 00:31:11;;;;;;;70.50;26.25;;;;;;;;;;1647369;87;21110;-94
2022/11/05 00:33:38;;;;;;;81.32;25.23;;;;;;;;;;1647563;87;21157;-92
2022/11/05 00:36:06;;;;;;;70.80;24.67;;;;;;;;;;1647472;87;21125;-91
2022/11/05 00:38:32;;;;;;;71.17;25.88;;;;;;;;;;1647247;87;21055;-94
2022/11/05 00:40:58;;;;;;;67.50;25.60;;;;;;;;;;1647644;85;21591;-92
2022/11/05 00:46:08;;;;;;;67.47;27.07;;;;;;;;;;1647270;87;21125;-93
2022/11/05 00:51:18;;;;;;;56.95;24.12;;;;;;;;;;1695525;84;21012;-92
2022/11/05 00:53:44;;;;;;;58.60;23.45;;;;;;;;;;1697438;84;20980;-91
2022/11/05 00:56:09;;;;;;;59.75;22.87;;;;;;;;;;1700854;83;20939;-92
2022/11/05 00:58:35;;;;;;;62.03;24.82;;;;;;;;;;1701162;83;20904;-92
2022/11/05 01:01:02;;;;;;;60.45;24.40;;;;;;;;;;1701093;84;21732;-93
2022/11/05 01:03:36;;;;;;;60.80;24.07;;;;;;;;;;1700624;84;21059;-91
2022/11/05 01:06:08;;;;;;;62.05;23.32;;;;;;;;;;1701156;84;20992;-96
2022/11/05 01:08:34;;;;;;;57.90;23.38;;;;;;;;;;1652369;85;21620;-91
2022/11/05 01:11:03;;;;;;;59.35;26.35;;;;;;;;;;1652551;85;20937;-93
2022/11/05 01:13:29;;;;;;;66.60;25.75;;;;;;;;;;1655605;84;21517;-92
2022/11/05 01:15:55;;;;;;;63.73;25.65;;;;;;;;;;1673798;84;20891;-92
2022/11/05 01:18:23;;;;;;;68.45;26.70;;;;;;;;;;1673710;84;21028;-94
2022/11/05 01:20:49;;;;;;;68.62;26.35;;;;;;;;;;1673864;84;21100;-92
2022/11/05 01:23:15;;;;;;;65.67;27.60;;;;;;;;;;1673597;85;21072;-93
2022/11/05 01:25:42;;;;;;;67.05;26.62;;;;;;;;;;1673925;84;21623;-92
2022/11/05 01:28:08;;;;;;;59.70;25.15;;;;;;;;;;1673728;84;21076;-92
2022/11/05 01:30:35;;;;;;;65.17;25.90;;;;;;;;;;1673809;84;21103;-91
2022/11/05 01:33:02;;;;;;;67.50;27.17;;;;;;;;;;1673797;84;21517;-92
2022/11/05 01:35:28;;;;;;;70.67;26.73;;;;;;;;;;1673415;84;21098;-91
2022/11/05 01:37:54;;;;;;;61.75;23.75;;;;;;;;;;1673685;84;21151;-92
2022/11/05 01:40:22;;;;;;;61.33;26.05;;;;;;;;;;1673846;84;21035;-93
2022/11/05 01:42:48;;;;;;;63.13;24.55;;;;;;;;;;1673813;84;21560;-91
2022/11/05 01:45:20;;;;;;;64.37;24.92;;;;;;;;;;1673781;85;20937;-90
2022/11/05 01:47:58;;;;;;;56.63;23.10;;;;;;;;;;1670357;84;21080;-91
2022/11/05 01:50:36;;;;;;;60.92;24.15;;;;;;;;;;1673780;84;21094;-92
2022/11/05 01:53:05;;;;;;;62.00;25.02;;;;;;;;;;1673806;84;21049;-95
2022/11/05 01:55:34;;;;;;;63.40;23.95;;;;;;;;;;1670855;84;21061;-94
2022/11/05 01:58:00;;;;;;;54.58;22.42;;;;;;;;;;1679156;83;21075;-92
2022/11/05 02:00:26;;;;;;;57.25;23.98;;;;;;;;;;1705723;84;21016;-92
2022/11/05 02:02:53;;;;;;;60.60;25.85;;;;;;;;;;1705824;84;21738;-95
2022/11/05 02:05:19;;;;;;;58.40;23.18;;;;;;;;;;1705744;84;21051;-92
2022/11/05 02:07:45;;;;;;;55.63;23.50;;;;;;;;;;1705920;84;20951;-90
2022/11/05 02:10:14;;;;;;;61.48;25.45;;;;;;;;;;1705570;84;20952;-92
2022/11/05 02:12:42;;;;;;;58.10;24.15;;;;;;;;;;1705748;84;21500;-92
2022/11/05 02:15:10;;;;;;;62.00;24.55;;;;;;;;;;1701256;84;21786;-92
2022/11/05 02:17:58;;;;;;;59.75;23.27;;;;;;;;;;1700564;84;21064;-92
2022/11/05 02:20:30;;;;;;;58.98;24.12;;;;;;;;;;1698006;84;21598;-90
2022/11/05 02:23:05;;;;;;;60.73;23.43;;;;;;;;;;1649382;85;21069;-92
2022/11/05 02:25:56;;;;;;;57.53;22.82;;;;;;;;;;1522302;93;21420;-92
2022/11/05 02:28:45;;;;;;;60.05;23.40;;;;;;;;;;1522442;93;21210;-92
2022/11/05 02:31:20;;;;;;;53.42;22.30;;;;;;;;;;1522400;94;21734;-90
2022/11/05 02:34:01;;;;;;;55.83;21.33;;;;;;;;;;1522546;93;21648;-92
2022/11/05 02:36:46;;;;;;;60.23;22.73;;;;;;;;;;1518590;93;21147;-92
2022/11/05 02:39:15;;;;;;;64.47;22.65;;;;;;;;;;1522472;93;21147;-93
2022/11/05 02:41:56;;;;;;;54.50;22.70;;;;;;;;;;1516874;94;21687;-92
2022/11/05 02:44:26;;;;;;;53.10;22.55;;;;;;;;;;1522511;93;21136;-96
2022/11/05 02:47:04;;;;;;;57.62;22.85;;;;;;;;;;1522502;93;21201;-93
2022/11/05 02:49:42;;;;;;;54.15;23.10;;;;;;;;;;1520145;94;21142;-92
2022/11/05 02:52:15;;;;;;;54.03;22.27;;;;;;;;;;1517780;93;21152;-92
2022/11/05 02:54:53;;;;;;;54.03;22.35;;;;;;;;;;1520140;93;21824;-91
2022/11/05 02:57:22;;;;;;;54.15;21.65;;;;;;;;;;1522266;92;21600;-92
2022/11/05 02:59:48;;;;;;;57.35;22.58;;;;;;;;;;1522076;92;21113;-92
2022/11/05 03:02:13;;;;;;;58.58;23.35;;;;;;;;;;1561194;84;20857;-92
2022/11/05 03:04:39;;;;;;;52.08;21.35;;;;;;;;;;1700941;84;20991;-91
2022/11/05 03:07:11;;;;;;;54.45;21.60;;;;;;;;;;1700914;83;21066;-92
2022/11/05 03:09:47;;;;;;;54.63;21.00;;;;;;;;;;1700688;83;20992;-92
2022/11/05 03:12:20;;;;;;;54.60;22.02;;;;;;;;;;1701002;83;21024;-92
2022/11/05 03:15:05;;;;;;;56.55;23.40;;;;;;;;;;1703316;84;21007;-92
2022/11/05 03:17:49;;;;;;;53.02;21.33;;;;;;;;;;1705694;83;20999;-93
2022/11/05 03:20:20;;;;;;;58.15;21.75;;;;;;;;;;1705872;83;21124;-93
2022/11/05 03:22:55;;;;;;;52.83;22.30;;;;;;;;;;1705753;83;21353;-92
2022/11/05 03:25:23;;;;;;;52.62;21.00;;;;;;;;;;1602387;88;21091;-93
2022/11/05 03:27:55;;;;;;;53.80;21.15;;;;;;;;;;1602194;88;21507;-92
2022/11/05 03:30:21;;;;;;;52.85;21.20;;;;;;;;;;1600257;88;21034;-92
2022/11/05 03:32:56;;;;;;;45.30;19.23;;;;;;;;;;1602533;88;21085;-92
2022/11/05 03:35:24;;;;;;;47.93;19.42;;;;;;;;;;1602321;88;21051;-93
2022/11/05 03:37:53;;;;;;;53.52;21.73;;;;;;;;;;1602275;88;21095;-92
2022/11/05 03:40:21;;;;;;;59.98;22.55;;;;;;;;;;1602326;89;21082;-93
2022/11/05 03:42:49;;;;;;;56.63;23.25;;;;;;;;;;1602298;89;21133;-90
2022/11/05 03:45:19;;;;;;;53.55;21.93;;;;;;;;;;1602137;89;21490;-93
2022/11/05 03:47:46;;;;;;;51.30;20.85;;;;;;;;;;1602452;89;21154;-93
2022/11/05 03:50:28;;;;;;;59.55;23.45;;;;;;;;;;1602585;88;21086;-91
2022/11/05 03:52:58;;;;;;;62.27;23.57;;;;;;;;;;1599716;88;21082;-92
2022/11/05 03:55:27;;;;;;;64.65;24.25;;;;;;;;;;1599319;89;21264;-94
2022/11/05 03:57:54;;;;;;;71.97;25.20;;;;;;;;;;1599881;88;21081;-92
2022/11/05 04:00:21;;;;;;;73.60;27.02;;;;;;;;;;1602667;88;21100;-93
2022/11/05 04:02:46;;;;;;;66.15;25.40;;;;;;;;;;1660316;83;21030;-93
2022/11/05 04:05:12;;;;;;;68.85;26.80;;;;;;;;;;1705850;83;20880;-93
2022/11/05 04:13:24;;;;;;;62.03;23.87;;;;;;;;;;1705437;84;22208;-93
2022/11/05 04:18:33;;;;;;;;;;;;;;;;;;1707779;83;20411;-92
2022/11/05 04:26:28;;;;;;;61.55;24.80;;;;;;;;;;1705309;84;21019;-93
2022/11/05 04:31:38;;;;;;;64.03;26.00;;;;;;;;;;1705490;84;21000;-93
2022/11/05 04:34:04;;;;;;;63.48;24.67;;;;;;;;;;1705736;83;21079;-91
2022/11/05 04:36:33;;;;;;;64.97;23.52;;;;;;;;;;1705695;83;21602;-93
2022/11/05 04:38:59;;;;;;;62.73;23.70;;;;;;;;;;1705198;83;21123;-93
2022/11/05 04:41:25;;;;;;;57.90;23.67;;;;;;;;;;1705503;83;21026;-92
2022/11/05 04:43:51;;;;;;;62.20;25.45;;;;;;;;;;1705333;84;21110;-93
2022/11/05 04:46:17;;;;;;;55.38;24.05;;;;;;;;;;1705479;83;21089;-93
2022/11/05 04:48:42;;;;;;;58.33;24.32;;;;;;;;;;1705524;83;21089;-95
2022/11/05 04:51:08;;;;;;;63.58;24.70;;;;;;;;;;1705137;83;21555;-93
2022/11/05 04:53:34;;;;;;;57.70;23.22;;;;;;;;;;1705736;83;21625;-92
2022/11/05 04:56:20;;;;;;;59.70;24.57;;;;;;;;;;1705480;83;20923;-94
2022/11/05 04:58:46;;;;;;;63.92;22.60;;;;;;;;;;1705575;83;21591;-94
2022/11/05 05:01:18;;;;;;;57.50;22.60;;;;;;;;;;1705626;83;21089;-93
2022/11/05 05:03:46;;;;;;;57.95;23.00;;;;;;;;;;1705436;83;21027;-93
2022/11/05 05:06:11;;;;;;;59.58;24.00;;;;;;;;;;1705546;82;21047;-91
2022/11/05 05:08:37;;;;;;;54.58;23.12;;;;;;;;;;1705829;83;20956;-93
2022/11/05 05:11:08;;;;;;;57.73;22.98;;;;;;;;;;1705858;83;20924;-91
2022/11/05 05:13:34;;;;;;;55.00;23.87;;;;;;;;;;1705698;83;22034;-92
2022/11/05 05:16:06;;;;;;;68.10;27.42;;;;;;;;;;1705628;83;21119;-92
2022/11/05 05:18:33;;;;;;;65.23;25.60;;;;;;;;;;1659673;86;21037;-95
2022/11/05 05:23:46;;;;;;;56.13;23.92;;;;;;;;;;1661757;86;20910;-93
2022/11/05 05:26:13;;;;;;;59.95;23.42;;;;;;;;;;1661861;85;21296;-93
2022/11/05 05:28:39;;;;;;;60.35;25.48;;;;;;;;;;1661826;86;21054;-93
2022/11/05 05:31:04;;;;;;;55.45;24.15;;;;;;;;;;1661995;86;20824;-94
2022/11/05 05:33:30;;;;;;;63.55;25.82;;;;;;;;;;1661777;85;20870;-93
2022/11/05 05:35:57;;;;;;;56.02;21.97;;;;;;;;;;1662191;86;21006;-93
2022/11/05 05:38:27;;;;;;;60.08;23.32;;;;;;;;;;1661764;85;21071;-91
2022/11/05 05:40:58;;;;;;;53.83;23.27;;;;;;;;;;1661713;86;21052;-92
2022/11/05 05:43:25;;;;;;;49.45;21.75;;;;;;;;;;1661849;86;21104;-92
2022/11/05 05:45:50;;;;;;;55.83;21.27;;;;;;;;;;1661827;85;21074;-94
2022/11/05 05:48:16;;;;;;;47.53;19.80;;;;;;;;;;1662011;86;20994;-93
2022/11/05 05:50:42;;;;;;;41.65;18.77;;;;;;;;;;1662076;86;21980;-96
2022/11/05 05:53:08;;;;;;;40.28;18.85;;;;;;;;;;1661988;86;20970;-93
2022/11/05 05:55:34;;;;;;;45.15;19.50;;;;;;;;;;1661858;85;21081;-92
2022/11/05 05:57:59;;;;;;;44.08;19.85;;;;;;;;;;1661905;86;21041;-94
2022/11/05 06:00:25;;;;;;;40.60;19.23;;;;;;;;;;1661114;84;20953;-93
2022/11/05 06:02:51;;;;;;;39.50;18.42;;;;;;;;;;1670992;84;21685;-94
2022/11/05 06:05:16;;;;;;;46.42;18.98;;;;;;;;;;1675246;84;20950;-92
2022/11/05 06:07:42;;;;;;;48.28;19.98;;;;;;;;;;1654587;84;20910;-89
2022/11/05 06:10:08;;;;;;;44.70;18.35;;;;;;;;;;1655112;86;20883;-89
2022/11/05 06:12:34;;;;;;;46.45;19.25;;;;;;;;;;1675091;84;21570;-90
2022/11/05 06:15:00;;;;;;;40.98;17.82;;;;;;;;;;1690750;82;21039;-91
2022/11/05 06:17:25;;;;;;;39.80;16.95;;;;;;;;;;1698229;83;20975;-92
2022/11/05 06:19:53;;;;;;;43.08;18.52;;;;;;;;;;1710327;83;21658;-92
2022/11/05 06:22:19;;;;;;;41.35;17.98;;;;;;;;;;1671910;83;21079;-88
2022/11/05 06:24:44;;;;;;;37.93;18.23;;;;;;;;;;1671435;83;20958;-89
2022/11/05 06:27:10;;;;;;;39.18;17.90;;;;;;;;;;1689679;84;21839;-91
2022/11/05 06:29:36;;;;;;;38.10;17.52;;;;;;;;;;1689656;84;20826;-91
2022/11/05 06:32:01;;;;;;;39.70;18.20;;;;;;;;;;1689854;84;21062;-91
2022/11/05 06:34:27;;;;;;;42.73;18.00;;;;;;;;;;1689672;84;20817;-90
2022/11/05 06:36:53;;;;;;;37.85;17.52;;;;;;;;;;1689571;84;21010;-88
2022/11/05 06:39:18;;;;;;;33.23;16.97;;;;;;;;;;1682337;83;21059;-89
2022/11/05 06:41:44;;;;;;;35.13;16.70;;;;;;;;;;1694326;84;20909;-87
2022/11/05 06:44:09;;;;;;;34.18;16.50;;;;;;;;;;1693864;84;20870;-93
2022/11/05 06:46:35;;;;;;;34.55;16.50;;;;;;;;;;1665627;84;20833;-91
2022/11/05 06:49:01;;;;;;;31.50;16.10;;;;;;;;;;1693804;84;21071;-90
2022/11/05 06:51:26;;;;;;;41.33;17.07;;;;;;;;;;1700790;84;21238;-90
2022/11/05 06:53:53;;;;;;;33.65;16.30;;;;;;;;;;1694103;84;21169;-95
2022/11/05 06:56:19;;;;;;;37.67;16.90;;;;;;;;;;1694164;84;21562;-90
2022/11/05 06:58:44;;;;;;;37.83;16.73;;;;;;;;;;1693714;84;21039;-89
2022/11/05 07:01:10;;;;;;;38.80;17.75;;;;;;;;;;1647727;85;20983;-91
2022/11/05 07:03:37;;;;;;;39.65;18.48;;;;;;;;;;1664813;83;21687;-89
2022/11/05 07:06:04;;;;;;;38.28;17.35;;;;;;;;;;1696594;84;21422;-89
2022/11/05 07:08:31;;;;;;;34.92;16.50;;;;;;;;;;1696420;83;21543;-89
2022/11/05 07:10:57;;;;;;;38.20;17.02;;;;;;;;;;1691452;83;21695;-92
2022/11/05 07:13:23;;;;;;;40.40;17.42;;;;;;;;;;1671275;84;21038;-93
2022/11/05 07:15:49;;;;;;;37.67;17.67;;;;;;;;;;1703941;81;21346;-92
2022/11/05 07:18:15;;;;;;;38.10;17.48;;;;;;;;;;1728320;82;21151;-91
2022/11/05 07:20:40;;;;;;;42.95;19.57;;;;;;;;;;1748608;82;20914;-88
2022/11/05 07:23:09;;;;;;;40.90;17.40;;;;;;;;;;1748736;82;20868;-90
2022/11/05 07:25:35;;;;;;;50.10;21.50;;;;;;;;;;1748688;82;20990;-88
2022/11/05 07:28:02;;;;;;;43.20;18.07;;;;;;;;;;1729330;82;22416;-91
2022/11/05 07:30:28;;;;;;;36.93;17.07;;;;;;;;;;1747399;81;20987;-91
2022/11/05 07:32:54;;;;;;;38.02;17.60;;;;;;;;;;1739078;81;21010;-89
2022/11/05 07:35:19;;;;;;;31.05;15.25;;;;;;;;;;1739953;81;21139;-91
2022/11/05 07:37:47;;;;;;;33.30;14.98;;;;;;;;;;1763568;81;20924;-91
2022/11/05 07:40:14;;;;;;;30.62;14.85;;;;;;;;;;1760717;81;21365;-89
2022/11/05 07:42:44;;;;;;;28.07;13.80;;;;;;;;;;1753443;81;21015;-90
2022/11/05 07:45:10;;;;;;;26.33;13.40;;;;;;;;;;1766985;81;21067;-92
2022/11/05 07:47:38;;;;;;;25.80;13.18;;;;;;;;;;1768385;80;21461;-87
2022/11/05 07:50:05;;;;;;;24.92;12.45;;;;;;;;;;1658195;85;21069;-90
2022/11/05 07:52:31;;;;;;;24.55;12.73;;;;;;;;;;1658420;85;21213;-88
2022/11/05 07:54:57;;;;;;;26.17;12.90;;;;;;;;;;1658162;85;21091;-88
2022/11/05 07:57:22;;;;;;;26.50;12.65;;;;;;;;;;1649756;85;20914;-93
2022/11/05 07:59:48;;;;;;;26.85;12.95;;;;;;;;;;1666333;85;21031;-89
2022/11/05 08:02:14;;;;;;;27.10;13.20;;;;;;;;;;1666200;85;20951;-87
2022/11/05 08:04:41;;;;;;;20.57;12.85;;;;;;;;;;1665985;85;22102;-88
2022/11/05 08:07:08;;;;;;;20.23;11.93;;;;;;;;;;1665703;85;21516;-89
2022/11/05 08:09:33;;;;;;;18.60;11.20;;;;;;;;;;1665818;85;21097;-86
2022/11/05 08:11:59;;;;;;;16.95;10.55;;;;;;;;;;1665664;85;21613;-88
2022/11/05 08:14:25;;;;;;;20.85;11.15;;;;;;;;;;1666033;85;20884;-85
2022/11/05 08:16:50;;;;;;;17.98;11.28;;;;;;;;;;1648521;84;21633;-88
2022/11/05 08:19:16;;;;;;;20.90;11.33;;;;;;;;;;1646603;86;20850;-89
2022/11/05 08:21:42;;;;;;;21.57;11.12;;;;;;;;;;1646480;86;21412;-89
2022/11/05 08:24:08;;;;;;;20.80;11.57;;;;;;;;;;1646737;87;21060;-89
2022/11/05 08:26:33;;;;;;;23.55;12.15;;;;;;;;;;1646737;87;21145;-88
2022/11/05 08:28:59;;;;;;;23.20;13.45;;;;;;;;;;1646614;87;21633;-88
2022/11/05 08:31:26;;;;;;;27.87;14.10;;;;;;;;;;1646712;86;20861;-88
2022/11/05 08:33:52;;;;;;;28.90;12.47;;;;;;;;;;1646267;86;21079;-90
2022/11/05 08:36:18;;;;;;;25.08;13.20;;;;;;;;;;1646210;87;21083;-89
2022/11/05 08:38:44;;;;;;;20.50;10.90;;;;;;;;;;1646341;87;21043;-90
2022/11/05 08:41:10;;;;;;;23.15;11.63;;;;;;;;;;1646614;87;21101;-96
2022/11/05 08:43:35;;;;;;;25.60;11.50;;;;;;;;;;1646494;87;21215;-89
2022/11/05 08:46:01;;;;;;;25.52;11.88;;;;;;;;;;1629640;84;20868;-92
2022/11/05 08:48:27;;;;;;;20.57;10.85;;;;;;;;;;1655038;83;21004;-88
2022/11/05 08:50:53;;;;;;;26.75;12.00;;;;;;;;;;1681220;83;21019;-93
2022/11/05 08:53:19;;;;;;;24.18;11.50;;;;;;;;;;1678304;83;21732;-90
2022/11/05 08:55:48;;;;;;;23.45;11.63;;;;;;;;;;1665589;83;21041;-91
2022/11/05 08:58:15;;;;;;;26.27;11.73;;;;;;;;;;1673513;83;21030;-89
2022/11/05 09:00:43;;;;;;;21.87;11.05;;;;;;;;;;1693372;83;21512;-94
2022/11/05 09:03:09;;;;;;;27.67;11.35;;;;;;;;;;1685408;83;21621;-91
2022/11/05 09:05:38;;;;;;;22.35;10.85;;;;;;;;;;1676686;83;21114;-94
2022/11/05 09:08:11;;;;;;;23.18;10.58;;;;;;;;;;1671053;83;21066;-92
2022/11/05 09:10:38;;;;;;;21.00;9.48;;;;;;;;;;1688826;82;21237;-91
2022/11/05 09:13:05;;;;;;;21.20;10.90;;;;;;;;;;1681563;83;21034;-91
2022/11/05 09:15:32;;;;;;;18.45;9.90;;;;;;;;;;1676684;83;21086;-91
2022/11/05 09:17:58;;;;;;;21.77;10.82;;;;;;;;;;1688582;83;21352;-91
2022/11/05 09:20:24;;;;;;;23.38;10.63;;;;;;;;;;1693084;82;21082;-91
2022/11/05 09:22:50;;;;;;;22.40;10.78;;;;;;;;;;1743644;81;21576;-90
2022/11/05 09:25:16;;;;;;;20.15;10.32;;;;;;;;;;1726299;81;21051;-90
2022/11/05 09:27:42;;;;;;;23.12;10.80;;;;;;;;;;1726113;81;21015;-91
2022/11/05 09:30:10;;;;;;;22.70;10.90;;;;;;;;;;1736440;81;21277;-91
2022/11/05 09:32:36;;;;;;;22.98;10.53;;;;;;;;;;1730067;81;21230;-91
2022/11/05 09:35:02;;;;;;;22.87;10.72;;;;;;;;;;1742561;81;21360;-91
2022/11/05 09:37:28;;;;;;;22.70;10.50;;;;;;;;;;1729585;81;20932;-92
2022/11/05 09:39:54;;;;;;;23.35;9.58;;;;;;;;;;1732015;81;21077;-91
2022/11/05 09:42:23;;;;;;;24.05;8.75;;;;;;;;;;1732707;81;20899;-92
2022/11/05 09:44:58;;;;;;;21.10;9.65;;;;;;;;;;1729047;81;21065;-90
2022/11/05 09:47:33;;;;;;;21.48;10.38;;;;;;;;;;1725655;81;21090;-92
2022/11/05 09:50:01;;;;;;;17.85;8.98;;;;;;;;;;1735470;81;21518;-89
2022/11/05 09:52:29;;;;;;;20.02;8.80;;;;;;;;;;1721026;81;21661;-91
2022/11/05 09:54:55;;;;;;;19.45;9.05;;;;;;;;;;1737236;81;21663;-92
2022/11/05 09:57:25;;;;;;;21.48;8.93;;;;;;;;;;1732830;81;21070;-88
2022/11/05 09:59:53;;;;;;;20.70;8.75;;;;;;;;;;1611817;86;21097;-90
2022/11/05 10:02:22;;;;;;;28.25;9.13;;;;;;;;;;1631115;86;21248;-92
2022/11/05 10:04:52;;;;;;;19.92;9.43;;;;;;;;;;1566831;89;22393;-90
2022/11/05 10:07:20;;;;;;;18.42;8.83;;;;;;;;;;1564537;89;21137;-90
2022/11/05 10:09:50;;;;;;;18.15;8.20;;;;;;;;;;1565770;89;21126;-93
2022/11/05 10:12:30;;;;;;;17.92;8.10;;;;;;;;;;1566315;89;21107;-88
2022/11/05 10:17:42;;;;;;;19.95;9.18;;;;;;;;;;1555357;90;21121;-91
2022/11/05 10:20:33;;;;;;;17.80;8.78;;;;;;;;;;1554342;90;21174;-92
2022/11/05 10:23:11;;;;;;;22.40;10.28;;;;;;;;;;1550728;90;21106;-91
2022/11/05 10:25:40;;;;;;;19.37;8.95;;;;;;;;;;1500002;93;21198;-91
2022/11/05 10:28:07;;;;;;;18.60;9.00;;;;;;;;;;1496032;93;21164;-92
2022/11/05 10:30:33;;;;;;;20.97;9.85;;;;;;;;;;1503353;93;21574;-91
2022/11/05 10:33:01;;;;;;;21.37;9.53;;;;;;;;;;1506997;93;21177;-91
2022/11/05 10:35:30;;;;;;;19.52;8.45;;;;;;;;;;1496097;93;21621;-91
2022/11/05 10:37:56;;;;;;;21.05;8.95;;;;;;;;;;1507450;93;21142;-87
2022/11/05 10:40:37;;;;;;;16.65;8.00;;;;;;;;;;1493097;93;21733;-89
2022/11/05 10:43:06;;;;;;;25.88;10.68;;;;;;;;;;1493207;93;21137;-94
2022/11/05 10:45:38;;;;;;;21.70;9.83;;;;;;;;;;1428079;96;21541;-89
2022/11/05 10:48:19;;;;;;;15.23;7.93;;;;;;;;;;1422107;99;21714;-86
2022/11/05 10:50:45;;;;;;;15.30;7.33;;;;;;;;;;1420830;99;21178;-90
2022/11/05 10:53:14;;;;;;;13.13;6.78;;;;;;;;;;1443991;98;21070;-86
2022/11/05 10:55:48;;;;;;;16.50;7.75;;;;;;;;;;1444738;98;21122;-88
2022/11/05 10:58:18;;;;;;;14.28;7.22;;;;;;;;;;1451384;98;21268;-92
2022/11/05 11:00:50;;;;;;;14.00;7.05;;;;;;;;;;1443949;98;21149;-88
2022/11/05 11:03:34;;;;;;;16.85;7.78;;;;;;;;;;1441592;97;21126;-88
2022/11/05 11:06:33;;;;;;;15.10;7.65;;;;;;;;;;1437907;97;21199;-89
2022/11/05 11:12:15;;;;;;;;;;;;;;;;;;1439633;97;21676;-88
2022/11/05 11:14:40;;;;;;;21.10;8.65;;;;;;;;;;1490110;93;20161;-88
2022/11/05 11:17:18;;;;;;;19.10;8.50;;;;;;;;;;1502891;94;20969;-88
2022/11/05 11:19:44;;;;;;;19.30;8.83;;;;;;;;;;1508275;94;21197;-89
2022/11/05 11:22:17;;;;;;;18.92;8.95;;;;;;;;;;1532531;90;21127;-88
2022/11/05 11:24:46;;;;;;;21.07;9.40;;;;;;;;;;1561424;88;21214;-89
2022/11/05 11:27:15;;;;;;;20.57;8.25;;;;;;;;;;1600833;88;20946;-89
2022/11/05 11:29:43;;;;;;;22.77;9.03;;;;;;;;;;1576865;90;21136;-89
2022/11/05 11:32:14;;;;;;;20.68;8.43;;;;;;;;;;1570209;89;21148;-88
2022/11/05 11:34:40;;;;;;;20.60;9.20;;;;;;;;;;1563357;90;21102;-89
2022/11/05 11:37:24;;;;;;;14.75;7.42;;;;;;;;;;1507935;93;22351;-88
2022/11/05 11:39:54;;;;;;;13.70;6.42;;;;;;;;;;1558144;90;21079;-84
2022/11/05 11:42:29;;;;;;;14.63;7.00;;;;;;;;;;1565297;87;21575;-88
2022/11/05 11:44:57;;;;;;;14.70;6.95;;;;;;;;;;1508688;93;21598;-87
2022/11/05 11:47:26;;;;;;;20.85;9.18;;;;;;;;;;1570149;90;21067;-88
2022/11/05 11:49:54;;;;;;;22.60;9.73;;;;;;;;;;1570751;90;21142;-90
2022/11/05 11:52:34;;;;;;;25.45;10.15;;;;;;;;;;1567938;90;21152;-84
2022/11/05 11:55:16;;;;;;;25.82;10.48;;;;;;;;;;1565084;89;21124;-88
2022/11/05 11:57:48;;;;;;;22.40;10.75;;;;;;;;;;1561999;90;21112;-90
2022/11/05 12:00:15;;;;;;;25.82;10.63;;;;;;;;;;1568182;90;21437;-88
2022/11/05 12:03:01;;;;;;;26.48;10.95;;;;;;;;;;1568904;89;21854;-87
2022/11/05 12:05:48;;;;;;;23.92;10.60;;;;;;;;;;1567221;89;21277;-86
2022/11/05 12:08:39;;;;;;;25.35;11.45;;;;;;;;;;1568949;89;21077;-87
2022/11/05 12:11:08;;;;;;;23.30;10.60;;;;;;;;;;1539484;91;21574;-86
2022/11/05 12:13:38;;;;;;;26.42;10.78;;;;;;;;;;1541338;91;21248;-91
2022/11/05 12:16:16;;;;;;;24.75;10.98;;;;;;;;;;1532681;91;22310;-82
2022/11/05 12:19:09;;;;;;;26.70;11.70;;;;;;;;;;1551064;90;20995;-86
2022/11/05 12:21:53;;;;;;;27.32;11.80;;;;;;;;;;1528302;92;21071;-84
2022/11/05 12:24:22;;;;;;;30.43;13.05;;;;;;;;;;1491688;93;21117;-85
2022/11/05 12:27:08;;;;;;;29.25;11.88;;;;;;;;;;1480542;94;21163;-88
2022/11/05 12:29:40;;;;;;;26.33;11.53;;;;;;;;;;1525525;92;21153;-83
2022/11/05 12:32:24;;;;;;;31.40;13.55;;;;;;;;;;1519981;92;21065;-84
2022/11/05 12:34:54;;;;;;;28.30;12.18;;;;;;;;;;1523042;92;21140;-86
2022/11/05 12:37:41;;;;;;;21.75;10.30;;;;;;;;;;1516846;92;21191;-86
2022/11/05 12:40:52;;;;;;;27.45;11.35;;;;;;;;;;1528990;92;21018;-88
2022/11/05 12:43:34;;;;;;;22.05;10.90;;;;;;;;;;1578293;88;21219;-89
2022/11/05 12:46:09;;;;;;;22.45;10.10;;;;;;;;;;1604821;88;21121;-91
2022/11/05 12:48:53;;;;;;;24.18;10.38;;;;;;;;;;1578874;89;21692;-86
2022/11/05 12:51:45;;;;;;;23.85;10.38;;;;;;;;;;1575637;89;21132;-88
2022/11/05 12:54:23;;;;;;;20.20;9.85;;;;;;;;;;1585094;89;21034;-87
2022/11/05 12:56:57;;;;;;;23.32;10.40;;;;;;;;;;1582040;89;21336;-87
2022/11/05 13:02:22;;;;;;;20.00;9.50;;;;;;;;;;1538334;91;21638;-89
2022/11/05 13:05:07;;;;;;;26.25;11.05;;;;;;;;;;1544077;91;21602;-89
2022/11/05 13:07:36;;;;;;;26.75;11.73;;;;;;;;;;1541599;91;21182;-89
2022/11/05 13:10:09;;;;;;;29.90;11.70;;;;;;;;;;1550910;91;21303;-89
2022/11/05 13:12:37;;;;;;;29.30;11.70;;;;;;;;;;1549100;91;21613;-89
2022/11/05 13:15:25;;;;;;;30.37;11.97;;;;;;;;;;1512898;93;21662;-88
2022/11/05 13:20:28;;;;;;;29.60;12.07;;;;;;;;;;1465509;96;21135;-88
2022/11/05 13:23:06;;;;;;;31.12;12.35;;;;;;;;;;1465718;96;22541;-88
2022/11/05 13:25:35;;;;;;;31.42;12.73;;;;;;;;;;1470884;95;21661;-87
2022/11/05 13:28:13;;;;;;;40.78;15.88;;;;;;;;;;1482401;95;21214;-86
2022/11/05 13:30:41;;;;;;;43.75;16.37;;;;;;;;;;1481085;95;21109;-86
2022/11/05 13:33:11;;;;;;;45.75;15.53;;;;;;;;;;1480158;95;21116;-87
2022/11/05 13:35:46;;;;;;;48.38;17.50;;;;;;;;;;1481522;95;21166;-88
2022/11/05 13:41:13;;;;;;;;;;;;;;;;;;1449125;97;21112;-88
2022/11/05 13:43:51;;;;;;;52.20;18.95;;;;;;;;;;1447870;97;20572;-87
2022/11/05 13:46:33;;;;;;;55.23;19.30;;;;;;;;;;1452627;97;21612;-88
2022/11/05 13:49:05;;;;;;;53.48;19.30;;;;;;;;;;1464062;96;21821;-87
2022/11/05 13:51:48;;;;;;;61.77;21.52;;;;;;;;;;1465904;96;21200;-88
2022/11/05 13:54:34;;;;;;;56.35;19.42;;;;;;;;;;1468711;96;21465;-88
2022/11/05 13:57:13;;;;;;;55.63;20.50;;;;;;;;;;1464840;96;21150;-87
2022/11/05 13:59:48;;;;;;;56.42;20.10;;;;;;;;;;1486026;94;21123;-86
2022/11/05 14:02:20;;;;;;;57.40;20.27;;;;;;;;;;1487946;95;21934;-88
2022/11/05 14:04:57;;;;;;;56.23;20.45;;;;;;;;;;1468401;96;21192;-87
2022/11/05 14:07:29;;;;;;;58.17;21.05;;;;;;;;;;1475239;96;21583;-87
2022/11/05 14:09:58;;;;;;;55.60;19.25;;;;;;;;;;1472011;96;21155;-87
2022/11/05 14:12:30;;;;;;;61.15;20.15;;;;;;;;;;1474848;96;21148;-86
2022/11/05 14:15:07;;;;;;;53.98;18.65;;;;;;;;;;1474817;96;21274;-86
2022/11/05 14:17:53;;;;;;;60.75;20.85;;;;;;;;;;1478339;94;21228;-86
2022/11/05 14:20:31;;;;;;;55.60;18.48;;;;;;;;;;1484472;96;21083;-83
2022/11/05 14:23:23;;;;;;;54.93;20.23;;;;;;;;;;1482741;95;21204;-83
2022/11/05 14:25:58;;;;;;;51.88;18.23;;;;;;;;;;1522963;92;21120;-85
2022/11/05 14:28:37;;;;;;;47.65;17.55;;;;;;;;;;1447109;97;21210;-85
2022/11/05 14:31:19;;;;;;;52.60;17.07;;;;;;;;;;1448457;97;21753;-87
2022/11/05 14:34:03;;;;;;;53.68;17.48;;;;;;;;;;1456212;97;21147;-85
2022/11/05 14:36:32;;;;;;;52.85;17.82;;;;;;;;;;1538195;91;21144;-87
2022/11/05 14:39:01;;;;;;;53.52;18.52;;;;;;;;;;1537614;91;21142;-85
2022/11/05 14:41:27;;;;;;;57.13;19.17;;;;;;;;;;1538261;93;21282;-83
2022/11/05 14:44:02;;;;;;;54.63;19.73;;;;;;;;;;1538435;93;20973;-85
2022/11/05 14:46:42;;;;;;;53.28;19.23;;;;;;;;;;1535282;93;21244;-83
2022/11/05 14:49:17;;;;;;;57.90;20.43;;;;;;;;;;1538117;93;21103;-84
2022/11/05 14:51:46;;;;;;;52.95;19.17;;;;;;;;;;1536391;93;21024;-85
2022/11/05 14:54:18;;;;;;;52.75;18.70;;;;;;;;;;1538518;93;21160;-84
2022/11/05 14:56:58;;;;;;;53.53;17.57;;;;;;;;;;1538329;93;21013;-90
2022/11/05 14:59:27;;;;;;;49.67;18.37;;;;;;;;;;1538066;93;21107;-89
2022/11/05 15:02:03;;;;;;;55.65;19.60;;;;;;;;;;1595595;86;21042;-84
2022/11/05 15:04:39;;;;;;;55.95;17.92;;;;;;;;;;1541793;90;21707;-87
2022/11/05 15:07:08;;;;;;;46.13;16.48;;;;;;;;;;1551889;90;21771;-85
2022/11/05 15:09:54;;;;;;;47.13;16.40;;;;;;;;;;1549490;90;21356;-87
2022/11/05 15:12:49;;;;;;;48.73;18.48;;;;;;;;;;1550567;90;21231;-86
2022/11/05 15:15:18;;;;;;;49.83;18.45;;;;;;;;;;1552016;90;21697;-89
2022/11/05 15:17:56;;;;;;;51.95;17.37;;;;;;;;;;1548169;89;21129;-84
2022/11/05 15:20:23;;;;;;;51.68;17.65;;;;;;;;;;1540377;90;21069;-82
2022/11/05 15:23:00;;;;;;;48.08;16.97;;;;;;;;;;1538377;91;21074;-87
2022/11/05 15:25:32;;;;;;;46.42;17.30;;;;;;;;;;1611984;86;21111;-84
2022/11/05 15:28:19;;;;;;;48.40;17.00;;;;;;;;;;1641071;86;21508;-87
2022/11/05 15:31:00;;;;;;;44.53;15.63;;;;;;;;;;1638509;86;21669;-82
2022/11/05 15:33:26;;;;;;;46.00;16.30;;;;;;;;;;1653647;84;21385;-85
2022/11/05 15:35:51;;;;;;;41.53;13.93;;;;;;;;;;1649199;84;21030;-85